createdAt,value
2022-11-08T00:02:14.508Z,8.59
2022-11-08T00:07:33.789Z,8.68
2022-11-08T00:12:53.511Z,8.58
2022-11-08T00:18:12.364Z,8.43
2022-11-08T00:23:31.943Z,8.42
2022-11-08T00:28:50.646Z,8.62
2022-11-08T00:34:10.178Z,8.79
2022-11-08T00:39:29.601Z,8.76
2022-11-08T00:44:48.766Z,8.68
2022-11-08T00:50:08.485Z,8.41
2022-11-08T00:55:27.310Z,7.91
2022-11-08T01:00:46.400Z,7.46
2022-11-08T01:06:05.334Z,7.05
2022-11-08T01:11:24.897Z,6.98
2022-11-08T01:16:44.286Z,6.91
2022-11-08T01:22:03.912Z,6.85
2022-11-08T01:27:23.289Z,6.81
2022-11-08T01:32:42.944Z,6.64
2022-11-08T01:38:02.615Z,6.41
2022-11-08T01:43:22.237Z,6.06
2022-11-08T01:48:41.965Z,5.98
2022-11-08T01:54:01.925Z,6.15
2022-11-08T01:59:21.206Z,6.23
2022-11-08T02:04:40.052Z,6.13
2022-11-08T02:09:59.569Z,6.29
2022-11-08T02:15:18.472Z,6.23
2022-11-08T02:21:52.627Z,6.19
2022-11-08T02:25:57.995Z,5.99
2022-11-08T02:31:17.583Z,6.16
2022-11-08T02:36:36.532Z,6.33
2022-11-08T02:41:55.579Z,6.15
2022-11-08T02:47:14.621Z,5.84
2022-11-08T02:52:33.481Z,5.41
2022-11-08T02:57:52.857Z,5.17
2022-11-08T03:03:11.646Z,5.33
2022-11-08T03:08:31.329Z,5.57
2022-11-08T03:13:50.564Z,5.46
2022-11-08T03:19:10.207Z,5.24
2022-11-08T03:24:29.493Z,5.09
2022-11-08T03:29:48.638Z,5
2022-11-08T03:35:07.976Z,4.89
2022-11-08T03:40:26.842Z,4.83
2022-11-08T03:45:46.388Z,4.85
2022-11-08T03:51:05.633Z,4.89
2022-11-08T03:59:38.731Z,4.67
2022-11-08T04:01:42.787Z,4.62
2022-11-08T04:07:01.611Z,4.37
2022-11-08T04:12:21.692Z,4.46
2022-11-08T04:17:41.134Z,4.76
2022-11-08T04:23:00.872Z,4.67
2022-11-08T04:28:20.640Z,4.8
2022-11-08T04:33:39.267Z,4.51
2022-11-08T04:38:58.667Z,4.4
2022-11-08T04:45:32.846Z,4.21
2022-11-08T04:49:37.681Z,4.08
2022-11-08T04:54:57.325Z,4.21
2022-11-08T05:00:16.147Z,4.4
2022-11-08T05:05:35.292Z,4.71
2022-11-08T05:10:54.662Z,4.67
2022-11-08T05:16:14.239Z,4.3
2022-11-08T05:21:33.481Z,4.17
2022-11-08T05:26:52.336Z,4.13
2022-11-08T05:32:11.947Z,4.04
2022-11-08T05:37:30.885Z,3.97
2022-11-08T05:42:50.031Z,3.89
2022-11-08T05:48:09.407Z,3.7
2022-11-08T05:53:28.955Z,3.89
2022-11-08T05:58:48.893Z,3.94
2022-11-08T06:04:08.312Z,3.76
2022-11-08T06:09:27.954Z,3.4
2022-11-08T06:14:47.034Z,3.12
2022-11-08T06:20:05.813Z,3.22
2022-11-08T06:25:25.336Z,3.76
2022-11-08T06:30:44.767Z,4.34
2022-11-08T06:36:03.860Z,4.19
2022-11-08T06:41:22.818Z,3.86
2022-11-08T06:46:42.276Z,3.58
2022-11-08T06:52:01.555Z,3.28
2022-11-08T06:52:29.625Z,3.45
2022-11-08T06:57:48.764Z,3.39
2022-11-08T07:03:07.996Z,3.97
2022-11-08T07:08:26.740Z,4.51
2022-11-08T07:13:45.638Z,4.71
2022-11-08T07:19:05.098Z,4.92
2022-11-08T07:24:24.075Z,5.27
2022-11-08T07:29:42.304Z,5.72
2022-11-08T07:35:01.671Z,6.22
2022-11-08T07:41:35.867Z,6.57
2022-11-08T07:45:42.094Z,7.26
2022-11-08T07:51:01.182Z,7.77
2022-11-08T07:56:19.876Z,8.18
2022-11-08T08:01:39.451Z,8.45
2022-11-08T08:06:58.338Z,8.32
2022-11-08T08:12:17.175Z,8.8
2022-11-08T08:20:50.201Z,9.38
2022-11-08T08:28:14.653Z,10.06
2022-11-08T08:33:34.766Z,9.45
2022-11-08T08:38:53.243Z,8.99
2022-11-08T08:44:12.236Z,8.53
2022-11-08T08:49:31.604Z,8.24
2022-11-08T08:54:50.188Z,8.18
2022-11-08T09:05:28.214Z,8.42
2022-11-08T09:10:46.920Z,8.66
2022-11-08T09:16:05.909Z,8.82
2022-11-08T09:21:24.620Z,9.1
2022-11-08T09:26:43.418Z,9.63
2022-11-08T09:32:03.646Z,10.1
2022-11-08T09:37:22.669Z,10.18
2022-11-08T09:42:42.156Z,10.34
2022-11-08T09:48:10.189Z,10.37
2022-11-08T09:53:20.012Z,10.88
2022-11-08T09:58:38.556Z,11.98
2022-11-08T10:03:57.665Z,13.1
2022-11-08T10:09:17.184Z,13.57
2022-11-08T10:14:41.909Z,14.63
2022-11-08T10:19:55.103Z,15.49
2022-11-08T10:25:14.646Z,16.18
2022-11-08T10:30:33.667Z,16.87
2022-11-08T10:35:54.457Z,17.6
2022-11-08T10:42:26.591Z,17.73
2022-11-08T10:46:32.437Z,18.43
2022-11-08T10:51:51.960Z,18.32
2022-11-08T10:57:08.755Z,16.79
2022-11-08T11:02:27.610Z,15.77
2022-11-08T11:07:46.349Z,15.56
2022-11-08T11:13:05.758Z,15.65
2022-11-08T11:18:25.506Z,15.71
2022-11-08T11:23:44.515Z,15.82
2022-11-08T11:29:03.711Z,16.1
2022-11-08T11:34:23.044Z,16.58
2022-11-08T11:39:41.046Z,16.89
2022-11-08T11:45:09.101Z,17.33
2022-11-08T11:50:20.041Z,17.24
2022-11-08T11:55:39.049Z,17.27
2022-11-08T12:00:58.171Z,17.53
2022-11-08T12:06:16.970Z,18.32
2022-11-08T12:11:35.709Z,19.06
2022-11-08T12:16:55.335Z,19.85
2022-11-08T12:22:14.090Z,19.54
2022-11-08T12:27:32.830Z,19.21
2022-11-08T12:32:52.435Z,18.96
2022-11-08T12:38:11.200Z,18.84
2022-11-08T12:43:30.102Z,18.32
2022-11-08T12:48:48.826Z,18.5
2022-11-08T12:54:08.138Z,18.43
2022-11-08T12:59:27.106Z,18.35
2022-11-08T13:06:01.222Z,18.83
2022-11-08T13:10:09.878Z,18.87
2022-11-08T13:15:25.696Z,18.5
2022-11-08T13:20:44.429Z,18.29
2022-11-08T13:26:03.862Z,18.21
2022-11-08T13:31:22.739Z,17.84
2022-11-08T13:36:41.630Z,17.67
2022-11-08T13:41:59.867Z,17.29
2022-11-08T13:47:18.909Z,17
2022-11-08T13:52:37.962Z,16.86
2022-11-08T13:57:56.913Z,16.79
2022-11-08T14:03:21.936Z,16.68
2022-11-08T14:08:41.965Z,16.54
2022-11-08T14:13:54.692Z,16.42
2022-11-08T14:19:13.636Z,16.29
2022-11-08T14:24:32.928Z,16.11
2022-11-08T14:29:51.585Z,16
2022-11-08T14:35:10.454Z,15.89
2022-11-08T14:40:29.313Z,15.76
2022-11-08T14:45:48.089Z,15.67
2022-11-08T14:56:26.448Z,15.38
2022-11-08T15:01:45.220Z,15.21
2022-11-08T15:07:04.804Z,14.99
2022-11-08T15:12:23.596Z,14.87
2022-11-08T15:17:43.036Z,14.7
2022-11-08T15:23:01.815Z,14.55
2022-11-08T15:28:21.792Z,14.5
2022-11-08T15:33:41.139Z,14.44
2022-11-08T15:39:00.534Z,14.32
2022-11-08T15:44:19.732Z,14.16
2022-11-08T15:49:38.015Z,14.04
2022-11-08T15:54:57.081Z,14.05
2022-11-08T16:00:16.783Z,14.1
2022-11-08T16:05:35.701Z,14.09
2022-11-08T16:10:54.889Z,14.08
2022-11-08T16:16:14.468Z,13.99
2022-11-08T16:21:33.921Z,13.91
2022-11-08T16:26:52.902Z,13.78
2022-11-08T16:32:12.318Z,13.57
2022-11-08T16:37:31.192Z,13.27
2022-11-08T16:42:49.945Z,13.19
2022-11-08T16:48:09.485Z,13.13
2022-11-08T16:53:28.251Z,13
2022-11-08T16:58:47.784Z,12.93
2022-11-08T17:04:07.231Z,12.86
2022-11-08T17:09:26.903Z,12.73
2022-11-08T17:14:46.583Z,12.63
2022-11-08T17:20:05.661Z,12.68
2022-11-08T17:25:25.851Z,12.68
2022-11-08T17:30:45.560Z,12.62
2022-11-08T17:36:05.109Z,12.62
2022-11-08T17:41:24.332Z,12.59
2022-11-08T17:46:42.413Z,12.28
2022-11-08T17:52:01.852Z,12.44
2022-11-08T17:57:21.195Z,12.44
2022-11-08T18:02:40.746Z,12.31
2022-11-08T18:07:59.877Z,12.38
2022-11-08T18:13:19.050Z,12.52
2022-11-08T18:18:37.947Z,12.51
2022-11-08T18:23:56.658Z,12.52
2022-11-08T18:29:16.231Z,12.42
2022-11-08T18:34:35.220Z,12.38
2022-11-08T18:39:53.947Z,12.44
2022-11-08T18:45:13.232Z,12.44
2022-11-08T18:50:32.138Z,12.45
2022-11-08T18:55:52.177Z,12.24
2022-11-08T19:01:10.828Z,12.2
2022-11-08T19:06:30.243Z,12.24
2022-11-08T19:11:49.818Z,12.08
2022-11-08T19:17:08.819Z,11.97
2022-11-08T19:22:27.495Z,12.14
2022-11-08T19:27:47.512Z,12.02
2022-11-08T19:33:06.842Z,11.67
2022-11-08T19:38:25.806Z,11.49
2022-11-08T19:43:44.935Z,11.52
2022-11-08T19:49:04.555Z,11.36
2022-11-08T19:54:23.266Z,11.18
2022-11-08T19:59:42.289Z,10.63
2022-11-08T20:05:01.622Z,10.26
2022-11-08T20:10:20.526Z,9.93
2022-11-08T20:15:39.326Z,9.85
2022-11-08T20:20:58.125Z,10.08
2022-11-08T20:26:17.236Z,10.22
2022-11-08T20:31:36.781Z,10.03
2022-11-08T20:36:56.305Z,9.72
2022-11-08T20:42:15.963Z,9.52
2022-11-08T20:47:35.863Z,9.43
2022-11-08T20:52:54.086Z,9.32
2022-11-08T20:58:13.854Z,9.3
2022-11-08T21:03:32.638Z,9.42
2022-11-08T21:09:02.990Z,9.71
2022-11-08T21:14:11.166Z,9.93
2022-11-08T21:19:30.070Z,10.09
2022-11-08T21:24:49.881Z,9.96
2022-11-08T21:30:09.367Z,9.5
2022-11-08T21:35:28.841Z,9.57
2022-11-08T21:40:48.458Z,9.77
2022-11-08T21:46:07.368Z,10.09
2022-11-08T21:51:25.926Z,10.17
2022-11-08T21:56:45.074Z,9.92
2022-11-08T22:02:04.740Z,9.71
2022-11-08T22:07:23.683Z,9.47
2022-11-08T22:12:43.072Z,9.45
2022-11-08T22:18:16.239Z,9.52
2022-11-08T22:23:21.266Z,9.45
2022-11-08T22:28:40.806Z,9.57
2022-11-08T22:33:59.862Z,9.68
2022-11-08T22:39:19.275Z,9.59
2022-11-08T22:44:39.326Z,9.6
2022-11-08T22:49:58.254Z,9.59
2022-11-08T22:55:16.376Z,9.57
2022-11-08T23:00:35.617Z,9.51
2022-11-08T23:05:54.550Z,9.64
2022-11-08T23:11:14.024Z,9.59
2022-11-08T23:16:33.527Z,9.34
2022-11-08T23:21:52.658Z,10.41
2022-11-08T23:27:12.372Z,10.75
2022-11-08T23:32:32.044Z,11.23
2022-11-08T23:37:50.958Z,11.39
2022-11-08T23:43:10.616Z,11.65
2022-11-08T23:48:30.515Z,12.04
2022-11-08T23:53:48.712Z,12.11
2022-11-08T23:59:07.601Z,11.98
